sensor_id;sensor_type;location;lat;lon;timestamp;P1;durP1;ratioP1;P2;durP2;ratioP2
18752;SDS011;9505;50.882;5.350;2023-11-25T00:00:28;24.58;;;2.58;;
18752;SDS011;9505;50.882;5.350;2023-11-25T00:02:54;26.77;;;2.58;;
18752;SDS011;9505;50.882;5.350;2023-11-25T00:05:19;23.83;;;2.55;;
18752;SDS011;9505;50.882;5.350;2023-11-25T00:07:45;21.95;;;2.28;;
18752;SDS011;9505;50.882;5.350;2023-11-25T00:10:11;31.80;;;2.75;;
18752;SDS011;9505;50.882;5.350;2023-11-25T00:12:37;23.23;;;2.35;;
18752;SDS011;9505;50.882;5.350;2023-11-25T00:15:03;32.47;;;2.67;;
18752;SDS011;9505;50.882;5.350;2023-11-25T00:17:29;31.52;;;2.83;;
18752;SDS011;9505;50.882;5.350;2023-11-25T00:19:56;35.92;;;3.22;;
18752;SDS011;9505;50.882;5.350;2023-11-25T00:22:22;57.08;;;4.20;;
18752;SDS011;9505;50.882;5.350;2023-11-25T00:24:48;16.20;;;1.90;;
18752;SDS011;9505;50.882;5.350;2023-11-25T00:27:14;25.42;;;2.58;;
18752;SDS011;9505;50.882;5.350;2023-11-25T00:29:40;20.67;;;1.88;;
18752;SDS011;9505;50.882;5.350;2023-11-25T00:32:06;21.40;;;2.35;;
18752;SDS011;9505;50.882;5.350;2023-11-25T00:34:32;26.10;;;1.90;;
18752;SDS011;9505;50.882;5.350;2023-11-25T00:36:58;24.20;;;2.70;;
18752;SDS011;9505;50.882;5.350;2023-11-25T00:39:23;27.77;;;2.80;;
18752;SDS011;9505;50.882;5.350;2023-11-25T00:41:49;34.10;;;3.15;;
18752;SDS011;9505;50.882;5.350;2023-11-25T00:44:15;35.42;;;3.55;;
18752;SDS011;9505;50.882;5.350;2023-11-25T00:46:41;24.73;;;3.75;;
18752;SDS011;9505;50.882;5.350;2023-11-25T00:49:07;23.20;;;2.58;;
18752;SDS011;9505;50.882;5.350;2023-11-25T00:51:33;29.60;;;3.28;;
18752;SDS011;9505;50.882;5.350;2023-11-25T00:53:59;41.97;;;3.65;;
18752;SDS011;9505;50.882;5.350;2023-11-25T00:56:24;25.13;;;2.22;;
18752;SDS011;9505;50.882;5.350;2023-11-25T00:58:50;21.92;;;2.78;;
18752;SDS011;9505;50.882;5.350;2023-11-25T01:01:16;26.60;;;2.60;;
18752;SDS011;9505;50.882;5.350;2023-11-25T01:03:42;15.20;;;1.50;;
18752;SDS011;9505;50.882;5.350;2023-11-25T01:06:07;22.08;;;2.65;;
18752;SDS011;9505;50.882;5.350;2023-11-25T01:08:33;31.27;;;2.75;;
18752;SDS011;9505;50.882;5.350;2023-11-25T01:10:59;24.48;;;2.20;;
18752;SDS011;9505;50.882;5.350;2023-11-25T01:13:25;30.15;;;2.85;;
18752;SDS011;9505;50.882;5.350;2023-11-25T01:15:50;10.95;;;2.10;;
18752;SDS011;9505;50.882;5.350;2023-11-25T01:18:17;26.70;;;2.72;;
18752;SDS011;9505;50.882;5.350;2023-11-25T01:20:43;19.30;;;2.15;;
18752;SDS011;9505;50.882;5.350;2023-11-25T01:23:08;23.23;;;2.50;;
18752;SDS011;9505;50.882;5.350;2023-11-25T01:25:35;21.52;;;1.77;;
18752;SDS011;9505;50.882;5.350;2023-11-25T01:28:01;23.65;;;2.42;;
18752;SDS011;9505;50.882;5.350;2023-11-25T01:30:26;24.50;;;1.80;;
18752;SDS011;9505;50.882;5.350;2023-11-25T01:32:52;25.83;;;2.85;;
18752;SDS011;9505;50.882;5.350;2023-11-25T01:35:18;31.50;;;4.85;;
18752;SDS011;9505;50.882;5.350;2023-11-25T01:37:43;21.02;;;2.20;;
18752;SDS011;9505;50.882;5.350;2023-11-25T01:40:09;27.02;;;2.78;;
18752;SDS011;9505;50.882;5.350;2023-11-25T01:42:37;24.65;;;2.70;;
18752;SDS011;9505;50.882;5.350;2023-11-25T01:45:03;27.42;;;2.63;;
18752;SDS011;9505;50.882;5.350;2023-11-25T01:47:30;23.25;;;2.35;;
18752;SDS011;9505;50.882;5.350;2023-11-25T01:49:56;19.55;;;2.45;;
18752;SDS011;9505;50.882;5.350;2023-11-25T01:52:22;24.98;;;2.30;;
18752;SDS011;9505;50.882;5.350;2023-11-25T01:54:50;16.40;;;1.90;;
18752;SDS011;9505;50.882;5.350;2023-11-25T01:57:17;34.58;;;3.00;;
18752;SDS011;9505;50.882;5.350;2023-11-25T01:59:43;26.85;;;2.47;;
18752;SDS011;9505;50.882;5.350;2023-11-25T02:02:13;31.98;;;2.85;;
18752;SDS011;9505;50.882;5.350;2023-11-25T02:04:40;14.43;;;1.70;;
18752;SDS011;9505;50.882;5.350;2023-11-25T02:07:09;17.48;;;1.92;;
18752;SDS011;9505;50.882;5.350;2023-11-25T02:09:35;22.90;;;2.53;;
18752;SDS011;9505;50.882;5.350;2023-11-25T02:12:01;26.35;;;2.33;;
18752;SDS011;9505;50.882;5.350;2023-11-25T02:14:27;26.45;;;3.13;;
18752;SDS011;9505;50.882;5.350;2023-11-25T02:16:53;30.27;;;3.10;;
18752;SDS011;9505;50.882;5.350;2023-11-25T02:19:20;25.10;;;2.60;;
18752;SDS011;9505;50.882;5.350;2023-11-25T02:21:47;24.50;;;2.60;;
18752;SDS011;9505;50.882;5.350;2023-11-25T02:24:12;34.53;;;3.10;;
18752;SDS011;9505;50.882;5.350;2023-11-25T02:26:38;34.83;;;3.53;;
18752;SDS011;9505;50.882;5.350;2023-11-25T02:29:04;23.80;;;1.98;;
18752;SDS011;9505;50.882;5.350;2023-11-25T02:31:31;20.50;;;1.98;;
18752;SDS011;9505;50.882;5.350;2023-11-25T02:33:57;16.38;;;1.92;;
18752;SDS011;9505;50.882;5.350;2023-11-25T02:36:23;18.20;;;1.65;;
18752;SDS011;9505;50.882;5.350;2023-11-25T02:38:49;21.45;;;2.17;;
18752;SDS011;9505;50.882;5.350;2023-11-25T02:41:15;31.05;;;2.70;;
18752;SDS011;9505;50.882;5.350;2023-11-25T02:43:41;14.38;;;1.83;;
18752;SDS011;9505;50.882;5.350;2023-11-25T02:46:06;22.13;;;2.20;;
18752;SDS011;9505;50.882;5.350;2023-11-25T02:48:33;16.23;;;1.67;;
18752;SDS011;9505;50.882;5.350;2023-11-25T02:51:00;26.70;;;2.50;;
18752;SDS011;9505;50.882;5.350;2023-11-25T02:53:26;19.25;;;1.95;;
18752;SDS011;9505;50.882;5.350;2023-11-25T02:55:52;30.70;;;2.85;;
18752;SDS011;9505;50.882;5.350;2023-11-25T02:58:17;15.25;;;1.70;;
18752;SDS011;9505;50.882;5.350;2023-11-25T03:00:43;21.15;;;3.10;;
18752;SDS011;9505;50.882;5.350;2023-11-25T03:03:09;24.40;;;2.33;;
18752;SDS011;9505;50.882;5.350;2023-11-25T03:05:38;23.27;;;2.25;;
18752;SDS011;9505;50.882;5.350;2023-11-25T03:08:11;24.55;;;2.58;;
18752;SDS011;9505;50.882;5.350;2023-11-25T03:10:41;17.52;;;1.60;;
18752;SDS011;9505;50.882;5.350;2023-11-25T03:13:10;24.88;;;2.47;;
18752;SDS011;9505;50.882;5.350;2023-11-25T03:15:37;10.82;;;1.75;;
18752;SDS011;9505;50.882;5.350;2023-11-25T03:18:04;21.60;;;2.47;;
18752;SDS011;9505;50.882;5.350;2023-11-25T03:20:33;15.05;;;2.17;;
18752;SDS011;9505;50.882;5.350;2023-11-25T03:23:00;25.33;;;2.17;;
18752;SDS011;9505;50.882;5.350;2023-11-25T03:25:26;20.73;;;2.22;;
18752;SDS011;9505;50.882;5.350;2023-11-25T03:27:54;39.63;;;3.25;;
18752;SDS011;9505;50.882;5.350;2023-11-25T03:30:20;26.10;;;2.55;;
18752;SDS011;9505;50.882;5.350;2023-11-25T03:32:47;28.17;;;2.90;;
18752;SDS011;9505;50.882;5.350;2023-11-25T03:35:13;21.52;;;2.03;;
18752;SDS011;9505;50.882;5.350;2023-11-25T03:37:40;20.73;;;2.05;;
18752;SDS011;9505;50.882;5.350;2023-11-25T03:40:05;29.85;;;2.53;;
18752;SDS011;9505;50.882;5.350;2023-11-25T03:42:33;26.20;;;2.67;;
18752;SDS011;9505;50.882;5.350;2023-11-25T03:45:00;17.23;;;1.90;;
18752;SDS011;9505;50.882;5.350;2023-11-25T03:47:26;30.45;;;2.80;;
18752;SDS011;9505;50.882;5.350;2023-11-25T03:49:53;22.77;;;2.58;;
18752;SDS011;9505;50.882;5.350;2023-11-25T03:52:19;32.92;;;2.88;;
18752;SDS011;9505;50.882;5.350;2023-11-25T03:54:46;24.23;;;2.05;;
18752;SDS011;9505;50.882;5.350;2023-11-25T03:57:12;35.13;;;2.85;;
18752;SDS011;9505;50.882;5.350;2023-11-25T03:59:37;13.07;;;1.35;;
18752;SDS011;9505;50.882;5.350;2023-11-25T04:02:03;22.73;;;2.00;;
18752;SDS011;9505;50.882;5.350;2023-11-25T04:04:28;20.05;;;2.35;;
18752;SDS011;9505;50.882;5.350;2023-11-25T04:06:54;24.73;;;2.17;;
18752;SDS011;9505;50.882;5.350;2023-11-25T04:09:20;31.95;;;2.40;;
18752;SDS011;9505;50.882;5.350;2023-11-25T04:11:45;34.15;;;2.95;;
18752;SDS011;9505;50.882;5.350;2023-11-25T04:14:11;18.90;;;2.35;;
18752;SDS011;9505;50.882;5.350;2023-11-25T04:16:37;18.58;;;2.10;;
18752;SDS011;9505;50.882;5.350;2023-11-25T04:19:02;17.67;;;1.92;;
18752;SDS011;9505;50.882;5.350;2023-11-25T04:21:28;31.95;;;2.45;;
18752;SDS011;9505;50.882;5.350;2023-11-25T04:23:54;29.88;;;2.40;;
18752;SDS011;9505;50.882;5.350;2023-11-25T04:26:22;31.92;;;3.33;;
18752;SDS011;9505;50.882;5.350;2023-11-25T04:28:49;24.55;;;2.20;;
18752;SDS011;9505;50.882;5.350;2023-11-25T04:31:15;25.52;;;2.75;;
18752;SDS011;9505;50.882;5.350;2023-11-25T04:33:41;18.55;;;2.03;;
18752;SDS011;9505;50.882;5.350;2023-11-25T04:36:07;27.00;;;2.22;;
18752;SDS011;9505;50.882;5.350;2023-11-25T04:38:34;22.58;;;2.42;;
18752;SDS011;9505;50.882;5.350;2023-11-25T04:41:00;11.32;;;1.58;;
18752;SDS011;9505;50.882;5.350;2023-11-25T04:43:25;29.35;;;2.80;;
18752;SDS011;9505;50.882;5.350;2023-11-25T04:45:51;14.80;;;1.73;;
18752;SDS011;9505;50.882;5.350;2023-11-25T04:48:17;20.73;;;2.10;;
18752;SDS011;9505;50.882;5.350;2023-11-25T04:50:44;24.83;;;2.35;;
18752;SDS011;9505;50.882;5.350;2023-11-25T04:53:11;18.95;;;2.17;;
18752;SDS011;9505;50.882;5.350;2023-11-25T04:55:37;17.92;;;1.80;;
18752;SDS011;9505;50.882;5.350;2023-11-25T04:58:03;19.30;;;2.17;;
18752;SDS011;9505;50.882;5.350;2023-11-25T05:00:28;21.75;;;2.45;;
18752;SDS011;9505;50.882;5.350;2023-11-25T05:02:54;18.27;;;1.73;;
18752;SDS011;9505;50.882;5.350;2023-11-25T05:05:20;23.27;;;2.28;;
18752;SDS011;9505;50.882;5.350;2023-11-25T05:07:48;20.10;;;2.03;;
18752;SDS011;9505;50.882;5.350;2023-11-25T05:10:13;22.55;;;2.25;;
18752;SDS011;9505;50.882;5.350;2023-11-25T05:12:40;37.85;;;4.03;;
18752;SDS011;9505;50.882;5.350;2023-11-25T05:15:09;20.65;;;1.98;;
18752;SDS011;9505;50.882;5.350;2023-11-25T05:17:36;29.75;;;2.92;;
18752;SDS011;9505;50.882;5.350;2023-11-25T05:20:03;9.27;;;1.20;;
18752;SDS011;9505;50.882;5.350;2023-11-25T05:22:29;21.08;;;2.47;;
18752;SDS011;9505;50.882;5.350;2023-11-25T05:24:55;16.80;;;1.92;;
18752;SDS011;9505;50.882;5.350;2023-11-25T05:27:21;34.03;;;2.85;;
18752;SDS011;9505;50.882;5.350;2023-11-25T05:29:47;13.00;;;1.58;;
18752;SDS011;9505;50.882;5.350;2023-11-25T05:32:14;24.85;;;2.50;;
18752;SDS011;9505;50.882;5.350;2023-11-25T05:34:40;22.33;;;2.53;;
18752;SDS011;9505;50.882;5.350;2023-11-25T05:37:06;22.00;;;2.45;;
18752;SDS011;9505;50.882;5.350;2023-11-25T05:39:33;26.20;;;2.15;;
18752;SDS011;9505;50.882;5.350;2023-11-25T05:42:00;22.83;;;2.38;;
18752;SDS011;9505;50.882;5.350;2023-11-25T05:44:27;34.38;;;2.90;;
18752;SDS011;9505;50.882;5.350;2023-11-25T05:46:54;20.35;;;1.95;;
18752;SDS011;9505;50.882;5.350;2023-11-25T05:49:21;21.20;;;2.28;;
18752;SDS011;9505;50.882;5.350;2023-11-25T05:51:47;25.40;;;2.70;;
18752;SDS011;9505;50.882;5.350;2023-11-25T05:54:15;23.05;;;2.40;;
18752;SDS011;9505;50.882;5.350;2023-11-25T05:56:44;16.88;;;2.00;;
18752;SDS011;9505;50.882;5.350;2023-11-25T05:59:11;28.77;;;2.78;;
18752;SDS011;9505;50.882;5.350;2023-11-25T06:01:37;28.50;;;2.92;;
18752;SDS011;9505;50.882;5.350;2023-11-25T06:04:03;38.25;;;3.05;;
18752;SDS011;9505;50.882;5.350;2023-11-25T06:06:29;30.40;;;2.88;;
18752;SDS011;9505;50.882;5.350;2023-11-25T06:08:54;29.42;;;2.53;;
18752;SDS011;9505;50.882;5.350;2023-11-25T06:11:24;35.58;;;4.00;;
18752;SDS011;9505;50.882;5.350;2023-11-25T06:13:51;20.85;;;3.10;;
18752;SDS011;9505;50.882;5.350;2023-11-25T06:16:26;27.27;;;3.03;;
18752;SDS011;9505;50.882;5.350;2023-11-25T06:18:54;30.95;;;2.80;;
18752;SDS011;9505;50.882;5.350;2023-11-25T06:21:20;28.60;;;3.08;;
18752;SDS011;9505;50.882;5.350;2023-11-25T06:23:45;32.40;;;3.67;;
18752;SDS011;9505;50.882;5.350;2023-11-25T06:26:13;20.55;;;3.13;;
18752;SDS011;9505;50.882;5.350;2023-11-25T06:28:43;30.17;;;3.15;;
18752;SDS011;9505;50.882;5.350;2023-11-25T06:31:09;38.88;;;3.88;;
18752;SDS011;9505;50.882;5.350;2023-11-25T06:33:37;25.90;;;2.67;;
18752;SDS011;9505;50.882;5.350;2023-11-25T06:36:05;38.67;;;3.63;;
18752;SDS011;9505;50.882;5.350;2023-11-25T06:38:31;25.27;;;3.28;;
18752;SDS011;9505;50.882;5.350;2023-11-25T06:40:57;24.25;;;3.20;;
18752;SDS011;9505;50.882;5.350;2023-11-25T06:43:23;30.63;;;2.78;;
18752;SDS011;9505;50.882;5.350;2023-11-25T06:45:49;32.92;;;3.15;;
18752;SDS011;9505;50.882;5.350;2023-11-25T06:48:17;39.78;;;3.38;;
18752;SDS011;9505;50.882;5.350;2023-11-25T06:50:44;24.65;;;2.90;;
18752;SDS011;9505;50.882;5.350;2023-11-25T06:53:10;22.15;;;2.92;;
18752;SDS011;9505;50.882;5.350;2023-11-25T06:55:35;25.50;;;2.83;;
18752;SDS011;9505;50.882;5.350;2023-11-25T06:58:06;29.48;;;2.95;;
18752;SDS011;9505;50.882;5.350;2023-11-25T07:00:36;22.80;;;2.83;;
18752;SDS011;9505;50.882;5.350;2023-11-25T07:03:02;36.88;;;3.00;;
18752;SDS011;9505;50.882;5.350;2023-11-25T07:05:29;30.20;;;3.53;;
18752;SDS011;9505;50.882;5.350;2023-11-25T07:07:55;25.05;;;2.78;;
18752;SDS011;9505;50.882;5.350;2023-11-25T07:10:20;21.25;;;2.35;;
18752;SDS011;9505;50.882;5.350;2023-11-25T07:12:46;23.73;;;2.30;;
18752;SDS011;9505;50.882;5.350;2023-11-25T07:15:12;31.25;;;3.10;;
18752;SDS011;9505;50.882;5.350;2023-11-25T07:17:39;44.80;;;4.30;;
18752;SDS011;9505;50.882;5.350;2023-11-25T07:20:05;24.20;;;2.47;;
18752;SDS011;9505;50.882;5.350;2023-11-25T07:22:37;24.77;;;2.92;;
18752;SDS011;9505;50.882;5.350;2023-11-25T07:25:04;33.60;;;3.60;;
18752;SDS011;9505;50.882;5.350;2023-11-25T07:27:30;46.33;;;4.18;;
18752;SDS011;9505;50.882;5.350;2023-11-25T07:29:56;27.58;;;3.40;;
18752;SDS011;9505;50.882;5.350;2023-11-25T07:32:26;25.33;;;2.47;;
18752;SDS011;9505;50.882;5.350;2023-11-25T07:34:52;36.00;;;4.15;;
18752;SDS011;9505;50.882;5.350;2023-11-25T07:37:17;30.77;;;3.13;;
18752;SDS011;9505;50.882;5.350;2023-11-25T07:39:44;32.90;;;3.17;;
18752;SDS011;9505;50.882;5.350;2023-11-25T07:42:09;27.17;;;3.03;;
18752;SDS011;9505;50.882;5.350;2023-11-25T07:44:35;28.55;;;2.97;;
18752;SDS011;9505;50.882;5.350;2023-11-25T07:47:01;32.42;;;3.22;;
18752;SDS011;9505;50.882;5.350;2023-11-25T07:49:27;28.52;;;2.78;;
18752;SDS011;9505;50.882;5.350;2023-11-25T07:51:56;27.02;;;3.72;;
18752;SDS011;9505;50.882;5.350;2023-11-25T07:54:22;25.17;;;3.17;;
18752;SDS011;9505;50.882;5.350;2023-11-25T07:56:48;33.70;;;3.28;;
18752;SDS011;9505;50.882;5.350;2023-11-25T07:59:14;32.38;;;3.22;;
18752;SDS011;9505;50.882;5.350;2023-11-25T08:01:40;23.83;;;2.85;;
18752;SDS011;9505;50.882;5.350;2023-11-25T08:04:05;24.23;;;2.75;;
18752;SDS011;9505;50.882;5.350;2023-11-25T08:06:31;22.67;;;2.60;;
18752;SDS011;9505;50.882;5.350;2023-11-25T08:08:57;23.25;;;2.67;;
18752;SDS011;9505;50.882;5.350;2023-11-25T08:11:24;28.45;;;2.40;;
18752;SDS011;9505;50.882;5.350;2023-11-25T08:13:50;38.33;;;4.60;;
18752;SDS011;9505;50.882;5.350;2023-11-25T08:16:16;26.45;;;2.88;;
18752;SDS011;9505;50.882;5.350;2023-11-25T08:18:43;22.88;;;2.53;;
18752;SDS011;9505;50.882;5.350;2023-11-25T08:21:13;42.58;;;3.30;;
18752;SDS011;9505;50.882;5.350;2023-11-25T08:23:39;23.92;;;2.50;;
18752;SDS011;9505;50.882;5.350;2023-11-25T08:26:06;24.50;;;3.13;;
18752;SDS011;9505;50.882;5.350;2023-11-25T08:28:49;27.45;;;3.88;;
18752;SDS011;9505;50.882;5.350;2023-11-25T08:31:15;29.10;;;2.90;;
18752;SDS011;9505;50.882;5.350;2023-11-25T08:33:42;32.80;;;4.38;;
18752;SDS011;9505;50.882;5.350;2023-11-25T08:36:09;23.25;;;2.47;;
18752;SDS011;9505;50.882;5.350;2023-11-25T08:38:35;23.08;;;2.45;;
18752;SDS011;9505;50.882;5.350;2023-11-25T08:41:02;32.60;;;3.15;;
18752;SDS011;9505;50.882;5.350;2023-11-25T08:43:32;16.83;;;2.60;;
18752;SDS011;9505;50.882;5.350;2023-11-25T08:45:58;29.17;;;3.05;;
18752;SDS011;9505;50.882;5.350;2023-11-25T08:48:25;43.38;;;3.60;;
18752;SDS011;9505;50.882;5.350;2023-11-25T08:50:50;35.28;;;4.50;;
18752;SDS011;9505;50.882;5.350;2023-11-25T08:53:16;26.85;;;3.38;;
18752;SDS011;9505;50.882;5.350;2023-11-25T08:55:41;26.20;;;3.15;;
18752;SDS011;9505;50.882;5.350;2023-11-25T08:58:07;29.98;;;3.97;;
18752;SDS011;9505;50.882;5.350;2023-11-25T09:00:33;27.80;;;4.20;;
18752;SDS011;9505;50.882;5.350;2023-11-25T09:02:59;27.02;;;3.60;;
18752;SDS011;9505;50.882;5.350;2023-11-25T09:05:27;30.75;;;4.10;;
18752;SDS011;9505;50.882;5.350;2023-11-25T09:07:56;38.45;;;4.45;;
18752;SDS011;9505;50.882;5.350;2023-11-25T09:10:24;23.85;;;3.33;;
18752;SDS011;9505;50.882;5.350;2023-11-25T09:12:51;33.50;;;4.13;;
18752;SDS011;9505;50.882;5.350;2023-11-25T09:15:18;19.90;;;3.05;;
18752;SDS011;9505;50.882;5.350;2023-11-25T09:17:45;26.23;;;3.53;;
18752;SDS011;9505;50.882;5.350;2023-11-25T09:20:11;51.78;;;4.93;;
18752;SDS011;9505;50.882;5.350;2023-11-25T09:22:40;31.35;;;3.65;;
18752;SDS011;9505;50.882;5.350;2023-11-25T09:25:07;22.38;;;3.25;;
18752;SDS011;9505;50.882;5.350;2023-11-25T09:27:37;52.55;;;4.63;;
18752;SDS011;9505;50.882;5.350;2023-11-25T09:30:04;25.10;;;3.72;;
18752;SDS011;9505;50.882;5.350;2023-11-25T09:32:30;38.08;;;4.13;;
18752;SDS011;9505;50.882;5.350;2023-11-25T09:34:56;144.23;;;11.88;;
18752;SDS011;9505;50.882;5.350;2023-11-25T09:37:23;33.83;;;4.03;;
18752;SDS011;9505;50.882;5.350;2023-11-25T09:39:48;61.58;;;5.82;;
18752;SDS011;9505;50.882;5.350;2023-11-25T09:42:14;84.00;;;7.78;;
18752;SDS011;9505;50.882;5.350;2023-11-25T09:44:41;104.88;;;8.90;;
18752;SDS011;9505;50.882;5.350;2023-11-25T09:47:08;46.15;;;4.10;;
18752;SDS011;9505;50.882;5.350;2023-11-25T09:49:33;35.55;;;4.05;;
18752;SDS011;9505;50.882;5.350;2023-11-25T09:52:00;90.22;;;7.75;;
18752;SDS011;9505;50.882;5.350;2023-11-25T09:54:31;86.75;;;6.90;;
18752;SDS011;9505;50.882;5.350;2023-11-25T09:56:57;91.13;;;7.68;;
18752;SDS011;9505;50.882;5.350;2023-11-25T09:59:25;82.38;;;8.02;;
18752;SDS011;9505;50.882;5.350;2023-11-25T10:01:53;58.50;;;5.50;;
18752;SDS011;9505;50.882;5.350;2023-11-25T10:04:19;32.92;;;3.30;;
18752;SDS011;9505;50.882;5.350;2023-11-25T10:06:51;27.15;;;3.08;;
18752;SDS011;9505;50.882;5.350;2023-11-25T10:09:18;15.38;;;2.28;;
18752;SDS011;9505;50.882;5.350;2023-11-25T10:11:46;61.22;;;5.60;;
18752;SDS011;9505;50.882;5.350;2023-11-25T10:14:12;87.78;;;6.90;;
18752;SDS011;9505;50.882;5.350;2023-11-25T10:16:39;97.35;;;7.43;;
18752;SDS011;9505;50.882;5.350;2023-11-25T10:19:21;95.43;;;7.85;;
18752;SDS011;9505;50.882;5.350;2023-11-25T10:21:48;80.72;;;6.63;;
18752;SDS011;9505;50.882;5.350;2023-11-25T10:24:14;93.68;;;7.30;;
18752;SDS011;9505;50.882;5.350;2023-11-25T10:26:41;48.78;;;4.18;;
18752;SDS011;9505;50.882;5.350;2023-11-25T10:29:08;44.17;;;3.45;;
18752;SDS011;9505;50.882;5.350;2023-11-25T10:31:39;28.30;;;2.85;;
18752;SDS011;9505;50.882;5.350;2023-11-25T10:34:10;35.40;;;3.33;;
18752;SDS011;9505;50.882;5.350;2023-11-25T10:36:37;35.05;;;3.58;;
18752;SDS011;9505;50.882;5.350;2023-11-25T10:39:05;96.82;;;7.40;;
18752;SDS011;9505;50.882;5.350;2023-11-25T10:41:34;60.63;;;4.90;;
18752;SDS011;9505;50.882;5.350;2023-11-25T10:44:04;96.40;;;7.47;;
18752;SDS011;9505;50.882;5.350;2023-11-25T10:46:39;80.18;;;6.40;;
18752;SDS011;9505;50.882;5.350;2023-11-25T10:49:06;91.32;;;6.80;;
18752;SDS011;9505;50.882;5.350;2023-11-25T10:51:34;79.55;;;6.35;;
18752;SDS011;9505;50.882;5.350;2023-11-25T10:54:02;44.03;;;3.75;;
18752;SDS011;9505;50.882;5.350;2023-11-25T10:56:28;24.98;;;2.40;;
18752;SDS011;9505;50.882;5.350;2023-11-25T10:58:55;66.10;;;5.20;;
18752;SDS011;9505;50.882;5.350;2023-11-25T11:01:22;76.10;;;6.10;;
18752;SDS011;9505;50.882;5.350;2023-11-25T11:06:28;63.22;;;4.85;;
18752;SDS011;9505;50.882;5.350;2023-11-25T11:08:59;71.13;;;6.18;;
18752;SDS011;9505;50.882;5.350;2023-11-25T11:14:11;26.27;;;2.92;;
18752;SDS011;9505;50.882;5.350;2023-11-25T11:19:06;27.45;;;3.05;;
18752;SDS011;9505;50.882;5.350;2023-11-25T11:21:34;14.48;;;2.05;;
18752;SDS011;9505;50.882;5.350;2023-11-25T11:24:02;135.60;;;10.43;;
18752;SDS011;9505;50.882;5.350;2023-11-25T11:26:32;85.85;;;6.78;;
18752;SDS011;9505;50.882;5.350;2023-11-25T11:29:51;28.73;;;3.00;;
18752;SDS011;9505;50.882;5.350;2023-11-25T11:32:01;90.63;;;7.00;;
18752;SDS011;9505;50.882;5.350;2023-11-25T11:34:29;86.93;;;6.80;;
18752;SDS011;9505;50.882;5.350;2023-11-25T11:36:57;49.85;;;4.05;;
18752;SDS011;9505;50.882;5.350;2023-11-25T11:42:26;32.40;;;2.70;;
18752;SDS011;9505;50.882;5.350;2023-11-25T11:45:15;28.13;;;2.22;;
18752;SDS011;9505;50.882;5.350;2023-11-25T11:50:29;33.65;;;2.92;;
18752;SDS011;9505;50.882;5.350;2023-11-25T11:58:09;43.95;;;3.70;;
18752;SDS011;9505;50.882;5.350;2023-11-25T12:00:40;37.42;;;2.90;;
18752;SDS011;9505;50.882;5.350;2023-11-25T12:03:06;39.35;;;3.90;;
18752;SDS011;9505;50.882;5.350;2023-11-25T12:05:33;79.35;;;5.75;;
18752;SDS011;9505;50.882;5.350;2023-11-25T12:07:59;94.20;;;6.85;;
18752;SDS011;9505;50.882;5.350;2023-11-25T12:10:25;95.05;;;7.35;;
18752;SDS011;9505;50.882;5.350;2023-11-25T12:12:51;65.35;;;4.78;;
18752;SDS011;9505;50.882;5.350;2023-11-25T12:15:18;41.88;;;3.42;;
18752;SDS011;9505;50.882;5.350;2023-11-25T12:17:44;52.65;;;3.92;;
18752;SDS011;9505;50.882;5.350;2023-11-25T12:20:10;94.25;;;6.93;;
18752;SDS011;9505;50.882;5.350;2023-11-25T12:22:38;95.25;;;7.35;;
18752;SDS011;9505;50.882;5.350;2023-11-25T12:25:05;88.40;;;6.55;;
18752;SDS011;9505;50.882;5.350;2023-11-25T12:27:37;87.78;;;6.57;;
18752;SDS011;9505;50.882;5.350;2023-11-25T12:30:03;48.10;;;3.90;;
18752;SDS011;9505;50.882;5.350;2023-11-25T12:32:30;39.15;;;3.60;;
18752;SDS011;9505;50.882;5.350;2023-11-25T12:34:55;47.67;;;4.03;;
18752;SDS011;9505;50.882;5.350;2023-11-25T12:37:21;128.25;;;9.25;;
18752;SDS011;9505;50.882;5.350;2023-11-25T12:39:47;82.72;;;6.30;;
18752;SDS011;9505;50.882;5.350;2023-11-25T12:42:12;53.92;;;4.15;;
18752;SDS011;9505;50.882;5.350;2023-11-25T12:44:47;35.70;;;3.65;;
18752;SDS011;9505;50.882;5.350;2023-11-25T12:47:13;25.73;;;2.47;;
18752;SDS011;9505;50.882;5.350;2023-11-25T12:49:40;31.13;;;2.97;;
18752;SDS011;9505;50.882;5.350;2023-11-25T12:52:07;73.80;;;5.35;;
18752;SDS011;9505;50.882;5.350;2023-11-25T12:54:44;33.83;;;2.72;;
18752;SDS011;9505;50.882;5.350;2023-11-25T12:57:10;64.35;;;4.97;;
18752;SDS011;9505;50.882;5.350;2023-11-25T12:59:37;80.47;;;6.72;;
18752;SDS011;9505;50.882;5.350;2023-11-25T13:02:06;84.50;;;6.35;;
18752;SDS011;9505;50.882;5.350;2023-11-25T13:04:42;84.15;;;6.50;;
18752;SDS011;9505;50.882;5.350;2023-11-25T13:07:11;92.63;;;6.85;;
18752;SDS011;9505;50.882;5.350;2023-11-25T13:09:55;17.73;;;1.83;;
18752;SDS011;9505;50.882;5.350;2023-11-25T13:12:21;51.42;;;4.22;;
18752;SDS011;9505;50.882;5.350;2023-11-25T13:14:46;87.65;;;6.53;;
18752;SDS011;9505;50.882;5.350;2023-11-25T13:17:13;85.03;;;6.75;;
18752;SDS011;9505;50.882;5.350;2023-11-25T13:19:40;60.42;;;4.80;;
18752;SDS011;9505;50.882;5.350;2023-11-25T13:22:06;51.83;;;3.90;;
18752;SDS011;9505;50.882;5.350;2023-11-25T13:24:31;31.35;;;3.55;;
18752;SDS011;9505;50.882;5.350;2023-11-25T13:26:57;33.88;;;2.95;;
18752;SDS011;9505;50.882;5.350;2023-11-25T13:29:23;89.15;;;6.03;;
18752;SDS011;9505;50.882;5.350;2023-11-25T13:31:49;110.47;;;7.40;;
18752;SDS011;9505;50.882;5.350;2023-11-25T13:34:14;83.68;;;6.13;;
18752;SDS011;9505;50.882;5.350;2023-11-25T13:36:40;63.08;;;4.78;;
18752;SDS011;9505;50.882;5.350;2023-11-25T13:39:06;35.45;;;2.95;;
18752;SDS011;9505;50.882;5.350;2023-11-25T13:41:39;40.15;;;3.45;;
18752;SDS011;9505;50.882;5.350;2023-11-25T13:44:04;46.20;;;3.80;;
18752;SDS011;9505;50.882;5.350;2023-11-25T13:46:30;51.10;;;4.00;;
18752;SDS011;9505;50.882;5.350;2023-11-25T13:48:56;75.40;;;5.55;;
18752;SDS011;9505;50.882;5.350;2023-11-25T13:51:21;71.40;;;5.63;;
18752;SDS011;9505;50.882;5.350;2023-11-25T13:53:47;44.33;;;3.50;;
18752;SDS011;9505;50.882;5.350;2023-11-25T13:56:13;21.08;;;1.92;;
18752;SDS011;9505;50.882;5.350;2023-11-25T13:58:39;37.00;;;2.92;;
18752;SDS011;9505;50.882;5.350;2023-11-25T14:01:04;67.65;;;4.85;;
18752;SDS011;9505;50.882;5.350;2023-11-25T14:03:30;101.32;;;7.43;;
18752;SDS011;9505;50.882;5.350;2023-11-25T14:05:56;53.33;;;3.90;;
18752;SDS011;9505;50.882;5.350;2023-11-25T14:08:22;22.40;;;2.17;;
18752;SDS011;9505;50.882;5.350;2023-11-25T14:10:53;17.83;;;1.40;;
18752;SDS011;9505;50.882;5.350;2023-11-25T14:13:20;49.15;;;3.60;;
18752;SDS011;9505;50.882;5.350;2023-11-25T14:15:46;81.80;;;6.15;;
18752;SDS011;9505;50.882;5.350;2023-11-25T14:18:13;69.07;;;5.15;;
18752;SDS011;9505;50.882;5.350;2023-11-25T14:20:38;51.92;;;4.05;;
18752;SDS011;9505;50.882;5.350;2023-11-25T14:23:04;22.05;;;2.40;;
18752;SDS011;9505;50.882;5.350;2023-11-25T14:25:30;34.55;;;3.00;;
18752;SDS011;9505;50.882;5.350;2023-11-25T14:27:55;56.80;;;4.65;;
18752;SDS011;9505;50.882;5.350;2023-11-25T14:30:21;92.00;;;6.80;;
18752;SDS011;9505;50.882;5.350;2023-11-25T14:32:53;67.00;;;5.35;;
18752;SDS011;9505;50.882;5.350;2023-11-25T14:35:19;31.83;;;2.95;;
18752;SDS011;9505;50.882;5.350;2023-11-25T14:37:46;23.20;;;2.13;;
18752;SDS011;9505;50.882;5.350;2023-11-25T14:40:12;49.40;;;4.30;;
18752;SDS011;9505;50.882;5.350;2023-11-25T14:42:42;63.03;;;5.10;;
18752;SDS011;9505;50.882;5.350;2023-11-25T14:45:11;71.30;;;5.90;;
18752;SDS011;9505;50.882;5.350;2023-11-25T14:47:37;76.00;;;6.40;;
18752;SDS011;9505;50.882;5.350;2023-11-25T14:50:04;62.75;;;5.68;;
18752;SDS011;9505;50.882;5.350;2023-11-25T14:52:33;23.50;;;2.92;;
18752;SDS011;9505;50.882;5.350;2023-11-25T14:54:59;35.03;;;4.03;;
18752;SDS011;9505;50.882;5.350;2023-11-25T14:57:24;84.57;;;7.13;;
18752;SDS011;9505;50.882;5.350;2023-11-25T14:59:52;86.88;;;7.22;;
18752;SDS011;9505;50.882;5.350;2023-11-25T15:02:19;86.30;;;7.15;;
18752;SDS011;9505;50.882;5.350;2023-11-25T15:04:46;68.47;;;6.15;;